Time;durP1;ratioP1;P1;durP2;ratioP2;P2;SDS_P1;SDS_P2;PMS_P1;PMS_P2;Temp;Humidity;BMP_temperature;BMP_pressure;BME280_temperature;BME280_humidity;BME280_pressure;Samples;Min_cycle;Max_cycle;Signal;HPM_P1;HPM_P2
2022/04/29 00:00:30;;;;;;;10.82;4.90;;;13.00;60.10;;;;;;5116088;28;20047;-67
2022/04/29 00:02:56;;;;;;;8.40;4.38;;;12.90;60.20;;;;;;5098114;28;20088;-67
2022/04/29 00:05:22;;;;;;;7.10;4.28;;;12.90;60.10;;;;;;5116016;28;20024;-67
2022/04/29 00:07:47;;;;;;;8.95;4.63;;;13.00;59.90;;;;;;5115952;28;20448;-67
2022/04/29 00:10:15;;;;;;;10.75;4.80;;;13.00;59.70;;;;;;5115930;28;20024;-67
2022/04/29 00:12:42;;;;;;;14.50;4.97;;;13.00;59.80;;;;;;5115920;28;20020;-67
2022/04/29 00:15:11;;;;;;;10.27;4.90;;;13.00;59.70;;;;;;5115824;28;20181;-67
2022/04/29 00:17:38;;;;;;;9.60;4.32;;;13.00;59.50;;;;;;5115911;28;20035;-67
2022/04/29 00:20:05;;;;;;;11.00;5.00;;;12.90;59.50;;;;;;5115711;28;20042;-67
2022/04/29 00:22:30;;;;;;;9.73;4.93;;;12.90;59.70;;;;;;5115722;28;20025;-67
2022/04/29 00:24:56;;;;;;;13.50;5.38;;;12.80;59.70;;;;;;5114766;28;20062;-67
2022/04/29 00:27:21;;;;;;;11.20;4.57;;;12.80;60.00;;;;;;5115402;28;20032;-67
2022/04/29 00:29:47;;;;;;;9.80;5.20;;;12.70;60.20;;;;;;5115609;28;20024;-67
2022/04/29 00:32:13;;;;;;;11.07;4.85;;;12.60;60.40;;;;;;5097589;28;20024;-67
2022/04/29 00:34:38;;;;;;;12.20;5.22;;;12.60;60.60;;;;;;5115457;28;20028;-67
2022/04/29 00:37:04;;;;;;;9.68;5.57;;;12.60;60.30;;;;;;5115426;28;20027;-67
2022/04/29 00:39:30;;;;;;;10.93;5.13;;;12.60;60.20;;;;;;5097404;28;20482;-67
2022/04/29 00:41:55;;;;;;;9.82;5.00;;;12.60;61.10;;;;;;5115300;28;20086;-67
2022/04/29 00:44:21;;;;;;;8.75;4.35;;;12.60;60.20;;;;;;5115270;28;20061;-67
2022/04/29 00:46:47;;;;;;;11.10;5.10;;;12.60;60.30;;;;;;5115230;28;20031;-67
2022/04/29 00:49:17;;;;;;;13.02;4.85;;;12.60;60.30;;;;;;5115147;28;20043;-67
2022/04/29 00:51:47;;;;;;;8.70;5.25;;;12.50;60.30;;;;;;5115126;28;20021;-67
2022/04/29 00:54:19;;;;;;;13.32;5.05;;;12.50;60.30;;;;;;5115119;28;20054;-67
2022/04/29 00:56:49;;;;;;;9.25;4.57;;;12.50;60.40;;;;;;5115082;28;20016;-67
2022/04/29 00:59:19;;;;;;;9.57;5.20;;;12.50;60.30;;;;;;5114995;28;20077;-67
2022/04/29 01:01:46;;;;;;;11.60;5.10;;;12.50;60.20;;;;;;5114984;28;20027;-67
2022/04/29 01:04:21;;;;;;;9.02;5.22;;;12.50;60.10;;;;;;5114822;28;20079;-67
2022/04/29 01:06:48;;;;;;;11.13;5.13;;;12.40;60.20;;;;;;5114850;28;20031;-67
2022/04/29 01:09:13;;;;;;;10.68;5.10;;;12.40;60.40;;;;;;5114749;28;20028;-67
2022/04/29 01:11:39;;;;;;;9.15;4.88;;;12.30;60.50;;;;;;5114738;28;20103;-67
2022/04/29 01:14:05;;;;;;;9.50;4.82;;;12.20;60.90;;;;;;5114711;28;20057;-67
2022/04/29 01:16:31;;;;;;;9.60;4.70;;;12.20;61.30;;;;;;5114791;28;20028;-67
2022/04/29 01:18:56;;;;;;;9.68;4.45;;;12.20;61.10;;;;;;5114623;28;20028;-67
2022/04/29 01:21:22;;;;;;;10.27;4.85;;;12.20;61.10;;;;;;5114559;28;20074;-67
2022/04/29 01:23:48;;;;;;;8.18;4.80;;;12.20;60.90;;;;;;5079885;28;20054;-67
2022/04/29 01:26:16;;;;;;;9.90;5.25;;;12.20;61.90;;;;;;5114471;28;20028;-67
2022/04/29 01:28:45;;;;;;;12.15;5.50;;;12.20;61.00;;;;;;5114135;28;20051;-67
2022/04/29 01:31:15;;;;;;;7.95;5.10;;;12.20;61.10;;;;;;5114394;28;20024;-67
2022/04/29 01:33:42;;;;;;;10.90;5.05;;;12.20;61.20;;;;;;5114319;28;20043;-67
2022/04/29 01:36:09;;;;;;;9.32;5.10;;;12.10;61.20;;;;;;5113411;28;20020;-67
2022/04/29 01:38:35;;;;;;;10.80;4.65;;;12.00;61.70;;;;;;5114387;28;20024;-67
2022/04/29 01:41:01;;;;;;;10.23;5.00;;;12.00;61.90;;;;;;5114294;28;20032;-67
2022/04/29 01:43:27;;;;;;;11.80;5.25;;;11.90;62.10;;;;;;5114061;28;20089;-67
2022/04/29 01:45:54;;;;;;;8.85;5.13;;;11.80;62.30;;;;;;5114155;28;20027;-67
2022/04/29 01:48:20;;;;;;;10.60;5.43;;;11.80;62.30;;;;;;5114056;28;20023;-67
2022/04/29 01:50:46;;;;;;;12.82;4.90;;;11.80;62.20;;;;;;5114018;28;20036;-68
2022/04/29 01:53:11;;;;;;;8.00;5.22;;;11.80;62.00;;;;;;5114058;28;20031;-67
2022/04/29 01:55:37;;;;;;;12.40;5.40;;;11.80;61.90;;;;;;5113921;28;20035;-67
2022/04/29 01:58:03;;;;;;;9.15;4.65;;;11.80;62.00;;;;;;5113862;28;20047;-67
2022/04/29 02:00:29;;;;;;;8.80;4.90;;;11.70;62.10;;;;;;5113874;28;20062;-67
2022/04/29 02:02:55;;;;;;;10.95;5.32;;;11.60;62.20;;;;;;5113850;28;20024;-67
2022/04/29 02:05:21;;;;;;;9.57;4.70;;;11.60;62.40;;;;;;5113707;28;20024;-67
2022/04/29 02:07:47;;;;;;;11.10;5.45;;;11.70;62.60;;;;;;5095923;28;20489;-67
2022/04/29 02:10:13;;;;;;;12.20;5.25;;;11.60;62.40;;;;;;5113728;28;20039;-67
2022/04/29 02:12:39;;;;;;;11.93;5.43;;;11.50;62.50;;;;;;5113669;28;20016;-67
2022/04/29 02:15:05;;;;;;;12.23;5.15;;;11.50;62.70;;;;;;5113667;28;20042;-67
2022/04/29 02:17:31;;;;;;;12.57;5.82;;;11.50;62.90;;;;;;5113734;28;20027;-67
2022/04/29 02:19:56;;;;;;;9.32;5.57;;;11.50;63.00;;;;;;5095782;28;20046;-67
2022/04/29 02:22:22;;;;;;;10.45;5.15;;;11.40;62.70;;;;;;5113508;28;20028;-67
2022/04/29 02:24:47;;;;;;;10.30;5.07;;;11.50;63.00;;;;;;5095516;28;20050;-67
2022/04/29 02:27:13;;;;;;;10.30;5.10;;;11.30;63.40;;;;;;5095481;28;20104;-69
2022/04/29 02:29:39;;;;;;;10.80;5.43;;;11.30;63.60;;;;;;5113373;28;20032;-67
2022/04/29 02:32:05;;;;;;;8.32;5.00;;;11.30;63.50;;;;;;5095567;28;20032;-67
2022/04/29 02:34:31;;;;;;;12.77;5.53;;;11.30;63.50;;;;;;5113396;28;20024;-67
2022/04/29 02:36:56;;;;;;;16.45;6.07;;;11.30;63.50;;;;;;5113380;28;20095;-67
2022/04/29 02:39:22;;;;;;;9.63;5.40;;;11.40;63.60;;;;;;5095425;28;20118;-67
2022/04/29 02:41:48;;;;;;;9.57;5.15;;;11.30;63.50;;;;;;5113350;28;20020;-67
2022/04/29 02:44:14;;;;;;;12.10;5.22;;;11.30;63.50;;;;;;5113278;28;20032;-67
2022/04/29 02:49:24;;;;;;;13.23;5.53;;;11.30;63.50;;;;;;5117635;28;20035;-67
2022/04/29 02:51:50;;;;;;;12.88;5.18;;;11.30;63.40;;;;;;5117458;28;20088;-67
2022/04/29 02:54:16;;;;;;;9.65;5.20;;;11.30;63.50;;;;;;5117434;28;20040;-67
2022/04/29 02:56:42;;;;;;;9.45;5.63;;;11.30;63.70;;;;;;5117379;28;20047;-67
2022/04/29 02:59:07;;;;;;;14.40;6.20;;;11.20;63.60;;;;;;5117327;28;20035;-67
2022/04/29 03:01:33;;;;;;;9.40;5.35;;;11.30;63.70;;;;;;5117262;28;20032;-67
2022/04/29 03:04:00;;;;;;;14.18;5.90;;;11.20;63.90;;;;;;5099457;28;20029;-67
2022/04/29 03:06:26;;;;;;;11.48;5.78;;;11.20;63.90;;;;;;5117165;28;20065;-67
2022/04/29 03:08:52;;;;;;;12.68;5.57;;;11.20;63.70;;;;;;5117134;28;20022;-67
2022/04/29 03:11:19;;;;;;;12.90;5.80;;;11.20;63.70;;;;;;5099099;28;20028;-67
2022/04/29 03:13:45;;;;;;;14.15;6.05;;;11.30;63.80;;;;;;5117031;28;20044;-67
2022/04/29 03:16:10;;;;;;;10.90;5.72;;;11.30;63.70;;;;;;5099217;28;20028;-67
2022/04/29 03:18:36;;;;;;;12.63;5.82;;;11.30;63.60;;;;;;5116962;28;20028;-67
2022/04/29 03:21:03;;;;;;;12.57;5.63;;;11.20;63.70;;;;;;5116889;28;20047;-67
2022/04/29 03:23:29;;;;;;;12.38;6.00;;;11.20;63.70;;;;;;5116781;28;20044;-67
2022/04/29 03:25:55;;;;;;;15.52;5.93;;;11.20;63.60;;;;;;5098809;28;20020;-67
2022/04/29 03:28:21;;;;;;;11.88;5.97;;;11.20;63.60;;;;;;5116532;28;20080;-67
2022/04/29 03:30:47;;;;;;;9.15;6.00;;;11.20;63.80;;;;;;5116727;28;20020;-67
2022/04/29 03:33:13;;;;;;;12.63;5.97;;;11.10;64.00;;;;;;5116679;28;20042;-67
2022/04/29 03:35:47;;;;;;;12.90;5.80;;;11.00;64.40;;;;;;5116611;28;20050;-67
2022/04/29 03:38:13;;;;;;;15.40;6.60;;;11.00;64.50;;;;;;5116629;28;20028;-67
2022/04/29 03:40:39;;;;;;;13.07;6.35;;;11.00;64.50;;;;;;5116532;28;20020;-67
2022/04/29 03:43:05;;;;;;;14.52;6.68;;;11.00;64.40;;;;;;5116479;28;20038;-67
2022/04/29 03:45:31;;;;;;;11.82;6.10;;;11.00;64.60;;;;;;5116366;28;20517;-67
2022/04/29 03:47:57;;;;;;;12.63;6.40;;;11.10;64.30;;;;;;5116511;28;20046;-67
2022/04/29 03:50:25;;;;;;;13.57;6.25;;;11.10;64.10;;;;;;5116331;28;20032;-67
2022/04/29 03:52:51;;;;;;;13.43;6.72;;;11.10;64.00;;;;;;5116323;28;20498;-67
2022/04/29 03:55:22;;;;;;;13.25;6.70;;;11.00;64.30;;;;;;5116259;28;20059;-67
2022/04/29 03:57:48;;;;;;;16.55;6.97;;;10.80;65.00;;;;;;5116219;28;20024;-67
2022/04/29 04:00:15;;;;;;;13.50;5.95;;;10.50;65.80;;;;;;5114970;28;20054;-67
2022/04/29 04:02:41;;;;;;;18.25;6.82;;;10.50;66.00;;;;;;5116097;28;20035;-67
2022/04/29 04:05:07;;;;;;;14.35;6.68;;;10.50;66.30;;;;;;5116004;28;20111;-67
2022/04/29 04:07:33;;;;;;;14.32;6.68;;;10.30;66.60;;;;;;5116058;28;20020;-67
2022/04/29 04:09:59;;;;;;;14.00;7.00;;;10.40;66.80;;;;;;5115910;28;20077;-67
2022/04/29 04:12:25;;;;;;;13.50;6.43;;;10.40;66.70;;;;;;5115931;28;20070;-67
2022/04/29 04:14:51;;;;;;;10.98;5.68;;;10.40;66.80;;;;;;5115871;28;20121;-67
2022/04/29 04:17:17;;;;;;;12.93;6.57;;;10.40;66.50;;;;;;5115832;28;20039;-67
2022/04/29 04:19:43;;;;;;;13.45;6.53;;;10.50;67.30;;;;;;5115740;28;20028;-67
2022/04/29 04:22:09;;;;;;;11.65;6.38;;;10.50;66.30;;;;;;5115746;28;20032;-67
2022/04/29 04:24:35;;;;;;;12.57;6.70;;;10.60;66.00;;;;;;5115652;28;20020;-67
2022/04/29 04:27:00;;;;;;;13.40;6.47;;;10.50;66.10;;;;;;5115789;28;20024;-67
2022/04/29 04:29:26;;;;;;;14.43;7.05;;;10.40;66.30;;;;;;5115271;28;20074;-67
2022/04/29 04:31:52;;;;;;;17.77;7.10;;;10.20;66.70;;;;;;5115516;28;20032;-67
2022/04/29 04:37:03;;;;;;;12.15;6.47;;;10.20;67.70;;;;;;5115679;28;20082;-67
2022/04/29 04:39:28;;;;;;;13.70;6.82;;;10.10;67.70;;;;;;5115318;28;20058;-67
2022/04/29 04:41:55;;;;;;;16.60;7.30;;;10.10;67.60;;;;;;5115269;28;20036;-67
2022/04/29 04:44:20;;;;;;;17.75;7.10;;;10.10;67.80;;;;;;5115232;28;20088;-67
2022/04/29 04:46:46;;;;;;;16.23;6.63;;;10.10;67.90;;;;;;5115281;28;20028;-68
2022/04/29 04:49:13;;;;;;;14.63;7.72;;;10.10;67.80;;;;;;5115198;28;20058;-67
2022/04/29 04:51:39;;;;;;;14.95;7.30;;;10.10;67.80;;;;;;5097492;28;20025;-67
2022/04/29 04:54:04;;;;;;;15.35;6.93;;;10.20;67.90;;;;;;5115092;28;20039;-67
2022/04/29 04:56:30;;;;;;;16.17;7.03;;;10.20;67.80;;;;;;5115055;28;20036;-67
2022/04/29 04:58:56;;;;;;;15.55;6.85;;;10.30;67.70;;;;;;5114970;28;20054;-67
2022/04/29 05:01:22;;;;;;;14.18;6.78;;;10.20;67.50;;;;;;5114932;28;20042;-67
2022/04/29 05:03:47;;;;;;;18.08;7.45;;;10.20;67.70;;;;;;5114825;28;20032;-67
2022/04/29 05:06:13;;;;;;;12.10;6.65;;;10.20;67.60;;;;;;5114993;28;20031;-67
2022/04/29 05:08:39;;;;;;;16.33;7.32;;;10.20;67.80;;;;;;5114810;28;20032;-67
2022/04/29 05:11:04;;;;;;;17.45;7.82;;;10.20;68.00;;;;;;5114652;28;20020;-68
2022/04/29 05:13:30;;;;;;;15.70;7.45;;;10.20;68.20;;;;;;5114743;28;20032;-67
2022/04/29 05:15:57;;;;;;;18.02;7.57;;;10.20;68.20;;;;;;5114633;28;20055;-66
2022/04/29 05:18:22;;;;;;;14.98;7.40;;;10.20;68.30;;;;;;5114713;28;20103;-67
2022/04/29 05:20:48;;;;;;;14.82;7.20;;;10.30;68.20;;;;;;5114606;28;20031;-66
2022/04/29 05:23:14;;;;;;;15.05;7.05;;;10.30;67.80;;;;;;5114497;28;20016;-66
2022/04/29 05:25:40;;;;;;;17.95;7.50;;;10.20;68.20;;;;;;5114402;28;20029;-66
2022/04/29 05:28:06;;;;;;;17.92;7.32;;;10.20;68.30;;;;;;5114253;28;20041;-66
2022/04/29 05:30:31;;;;;;;20.25;7.15;;;10.20;68.40;;;;;;5114413;28;20028;-66
2022/04/29 05:32:58;;;;;;;16.35;7.65;;;10.20;68.20;;;;;;5114362;28;20028;-66
2022/04/29 05:35:24;;;;;;;16.10;7.13;;;10.20;68.20;;;;;;5114325;28;20035;-66
2022/04/29 05:37:51;;;;;;;14.20;7.07;;;10.30;68.10;;;;;;5114264;28;20033;-66
2022/04/29 05:43:02;;;;;;;15.45;7.22;;;10.20;68.20;;;;;;5114425;28;20042;-66
2022/04/29 05:45:28;;;;;;;14.15;6.93;;;10.20;68.30;;;;;;5114056;28;20020;-66
2022/04/29 05:47:54;;;;;;;14.40;7.40;;;10.20;68.50;;;;;;5114206;28;20119;-67
2022/04/29 05:50:20;;;;;;;19.05;7.55;;;10.20;68.80;;;;;;5114042;28;20031;-67
2022/04/29 05:52:45;;;;;;;17.17;7.10;;;10.20;68.80;;;;;;5114109;28;20024;-67
2022/04/29 05:55:12;;;;;;;15.45;7.18;;;10.20;68.90;;;;;;5113961;28;20036;-67
2022/04/29 05:57:38;;;;;;;13.77;7.15;;;10.20;68.70;;;;;;5096379;28;20024;-66
2022/04/29 06:00:04;;;;;;;17.60;7.20;;;10.20;68.80;;;;;;5113844;28;20028;-66
2022/04/29 06:02:29;;;;;;;14.85;6.47;;;10.20;68.80;;;;;;5113825;28;20031;-66
2022/04/29 06:04:55;;;;;;;15.98;6.95;;;10.20;68.70;;;;;;5095826;28;20027;-66
2022/04/29 06:07:21;;;;;;;13.45;6.90;;;10.20;69.00;;;;;;5113803;28;20036;-66
2022/04/29 06:09:46;;;;;;;18.17;7.72;;;10.30;68.90;;;;;;5095846;28;20023;-66
2022/04/29 06:12:13;;;;;;;15.38;6.82;;;10.30;68.70;;;;;;5113697;28;20544;-67
2022/04/29 06:14:41;;;;;;;14.45;6.53;;;10.30;68.80;;;;;;5113740;28;20084;-66
2022/04/29 06:17:06;;;;;;;12.95;6.80;;;10.30;68.80;;;;;;5096267;28;20028;-66
2022/04/29 06:19:32;;;;;;;18.08;7.25;;;10.30;69.30;;;;;;5113603;28;20157;-67
2022/04/29 06:21:57;;;;;;;14.48;7.22;;;10.30;69.20;;;;;;5095044;28;20115;-66
2022/04/29 06:24:23;;;;;;;18.92;7.13;;;10.30;69.20;;;;;;5113447;28;20055;-67
2022/04/29 06:26:49;;;;;;;16.63;7.15;;;10.30;69.30;;;;;;5095639;28;20036;-66
2022/04/29 06:29:15;;;;;;;16.48;7.20;;;10.30;69.50;;;;;;5113247;28;20048;-66
2022/04/29 06:31:40;;;;;;;20.40;7.45;;;10.40;69.60;;;;;;5113444;28;20016;-66
2022/04/29 06:34:06;;;;;;;16.52;7.53;;;10.40;69.40;;;;;;5113386;28;20035;-66
2022/04/29 06:36:32;;;;;;;19.60;7.30;;;10.50;69.40;;;;;;5113472;28;20032;-66
2022/04/29 06:38:57;;;;;;;17.48;7.60;;;10.50;69.50;;;;;;5095494;28;20028;-66
2022/04/29 06:41:23;;;;;;;15.32;7.10;;;10.50;69.40;;;;;;5113255;28;20033;-66
2022/04/29 06:43:49;;;;;;;20.58;8.07;;;10.60;69.10;;;;;;5113291;28;20038;-66
2022/04/29 06:46:15;;;;;;;19.42;7.68;;;10.70;69.10;;;;;;5113240;28;20034;-66
2022/04/29 06:48:41;;;;;;;22.77;8.27;;;10.80;68.90;;;;;;5113275;28;20035;-67
2022/04/29 06:51:06;;;;;;;17.67;7.60;;;10.80;68.90;;;;;;5113291;28;20506;-67
2022/04/29 06:53:32;;;;;;;15.65;7.40;;;10.80;69.20;;;;;;5113236;28;20054;-69
2022/04/29 06:55:57;;;;;;;18.23;8.05;;;10.80;69.20;;;;;;5113317;28;20020;-67
2022/04/29 06:58:23;;;;;;;15.15;7.45;;;10.80;69.30;;;;;;5113179;28;20032;-67
2022/04/29 07:00:49;;;;;;;17.00;7.68;;;10.80;69.30;;;;;;5113144;28;20028;-67
2022/04/29 07:03:14;;;;;;;17.38;7.60;;;10.90;69.40;;;;;;5113161;28;20034;-67
2022/04/29 07:05:41;;;;;;;14.70;7.45;;;11.00;69.00;;;;;;5113082;28;20032;-67
2022/04/29 07:08:07;;;;;;;15.57;7.88;;;11.00;68.90;;;;;;5113134;28;20038;-67
2022/04/29 07:10:33;;;;;;;18.30;7.43;;;11.00;69.20;;;;;;5113087;28;20020;-67
2022/04/29 07:13:02;;;;;;;15.52;7.85;;;11.00;69.10;;;;;;5113024;28;20032;-67
2022/04/29 07:15:28;;;;;;;18.00;7.38;;;11.10;69.20;;;;;;5113124;28;20463;-67
2022/04/29 07:17:54;;;;;;;17.35;7.22;;;11.00;69.20;;;;;;5112992;28;20036;-66
2022/04/29 07:20:19;;;;;;;15.88;7.40;;;11.10;69.10;;;;;;5112974;28;20032;-66
2022/04/29 07:22:45;;;;;;;16.90;7.32;;;11.10;69.10;;;;;;5112942;28;20100;-66
2022/04/29 07:25:12;;;;;;;16.88;7.50;;;11.20;69.20;;;;;;5112856;28;20044;-66
2022/04/29 07:27:40;;;;;;;16.77;7.90;;;11.20;69.00;;;;;;5112498;28;20076;-67
2022/04/29 07:30:08;;;;;;;23.40;7.85;;;11.30;69.30;;;;;;5112961;28;20039;-66
2022/04/29 07:32:34;;;;;;;22.20;7.95;;;11.30;69.60;;;;;;5112857;28;20087;-66
2022/04/29 07:43:13;;;;;;;17.05;7.07;;;11.40;69.30;;;;;;5116756;28;20062;-67
2022/04/29 07:45:42;;;;;;;14.00;7.35;;;11.50;69.50;;;;;;5116384;28;20028;-66
2022/04/29 07:48:08;;;;;;;16.85;7.95;;;11.50;69.40;;;;;;5116452;28;20020;-66
2022/04/29 07:50:35;;;;;;;18.05;8.00;;;11.60;68.90;;;;;;5116417;28;20044;-66
2022/04/29 07:53:02;;;;;;;18.00;7.25;;;11.70;68.60;;;;;;5116317;28;20024;-66
2022/04/29 07:55:28;;;;;;;16.48;8.23;;;11.70;68.20;;;;;;5116274;28;20020;-66
2022/04/29 07:57:53;;;;;;;19.63;7.88;;;11.80;68.20;;;;;;5116246;28;20055;-66
2022/04/29 08:00:19;;;;;;;21.92;7.63;;;11.90;68.10;;;;;;5098194;28;20036;-67
2022/04/29 08:02:45;;;;;;;21.98;8.23;;;12.00;68.00;;;;;;5115672;28;20028;-67
2022/04/29 08:05:11;;;;;;;19.27;7.97;;;12.10;68.10;;;;;;5116038;28;20028;-67
2022/04/29 08:07:37;;;;;;;20.50;7.93;;;12.10;67.80;;;;;;5116022;28;20088;-68
2022/04/29 08:10:03;;;;;;;19.77;7.90;;;12.20;67.80;;;;;;5116089;28;20024;-67
2022/04/29 08:12:29;;;;;;;18.13;8.80;;;12.20;67.80;;;;;;5115917;28;20020;-67
2022/04/29 08:14:56;;;;;;;19.38;8.18;;;12.20;67.70;;;;;;5115889;28;20050;-66
2022/04/29 08:17:22;;;;;;;20.27;7.13;;;12.20;67.60;;;;;;5115875;28;20020;-67
2022/04/29 08:19:48;;;;;;;18.60;7.57;;;12.30;67.40;;;;;;5115807;28;20475;-66
2022/04/29 08:22:15;;;;;;;15.35;7.43;;;12.40;67.20;;;;;;5115781;28;20027;-66
2022/04/29 08:24:41;;;;;;;17.95;8.55;;;12.50;66.90;;;;;;5097660;28;20024;-66
2022/04/29 08:27:07;;;;;;;18.27;8.13;;;12.50;66.80;;;;;;5115641;28;20027;-66
2022/04/29 08:29:33;;;;;;;17.23;8.05;;;12.60;66.70;;;;;;5115307;28;20048;-66
2022/04/29 08:31:58;;;;;;;20.48;8.23;;;12.60;66.50;;;;;;5115552;28;20038;-66
2022/04/29 08:34:25;;;;;;;20.05;8.32;;;12.70;66.60;;;;;;5115527;28;20073;-67
2022/04/29 08:36:51;;;;;;;12.70;8.13;;;12.70;66.30;;;;;;5115505;28;20021;-67
2022/04/29 08:39:17;;;;;;;19.65;8.18;;;12.70;66.10;;;;;;5115469;28;20016;-67
2022/04/29 08:41:43;;;;;;;17.13;7.88;;;12.70;66.80;;;;;;5115351;28;20035;-68
2022/04/29 08:44:10;;;;;;;17.23;8.13;;;12.70;66.80;;;;;;5097432;28;20451;-67
2022/04/29 08:46:39;;;;;;;15.25;8.30;;;12.80;66.60;;;;;;5114724;28;20017;-67
2022/04/29 08:49:06;;;;;;;16.20;7.82;;;12.80;67.70;;;;;;5115260;28;20038;-67
2022/04/29 08:51:34;;;;;;;21.17;9.15;;;12.90;67.40;;;;;;5115189;28;20046;-67
2022/04/29 08:54:01;;;;;;;18.13;9.10;;;13.00;67.60;;;;;;5115103;28;20035;-67
2022/04/29 08:59:12;;;;;;;16.02;8.18;;;13.10;66.40;;;;;;5115286;28;20035;-67
2022/04/29 09:01:41;;;;;;;22.17;7.90;;;13.20;66.10;;;;;;5115004;28;20032;-67
2022/04/29 09:04:07;;;;;;;16.13;8.27;;;13.20;66.40;;;;;;5114889;28;20032;-67
2022/04/29 09:06:33;;;;;;;14.77;7.85;;;13.30;66.10;;;;;;5115047;28;20084;-67
2022/04/29 09:09:09;;;;;;;18.17;8.52;;;13.30;65.80;;;;;;5114809;28;20032;-67
2022/04/29 09:11:35;;;;;;;17.70;8.20;;;13.40;65.60;;;;;;5096857;28;20012;-67
2022/04/29 09:14:21;;;;;;;15.93;8.15;;;13.50;65.70;;;;;;5114740;28;20028;-67
2022/04/29 09:16:48;;;;;;;17.17;8.23;;;13.60;65.00;;;;;;5114702;28;20050;-67
2022/04/29 09:19:35;;;;;;;13.98;8.07;;;13.60;64.70;;;;;;5114698;28;20024;-67
2022/04/29 09:22:07;;;;;;;17.77;8.65;;;13.60;64.80;;;;;;5114613;28;20150;-67
2022/04/29 09:24:33;;;;;;;16.35;8.32;;;13.70;65.20;;;;;;5114541;28;20048;-67
2022/04/29 09:27:03;;;;;;;19.85;8.85;;;13.80;65.20;;;;;;5114604;28;20024;-67
2022/04/29 09:29:29;;;;;;;15.32;8.07;;;13.90;65.10;;;;;;5114203;28;20048;-67
2022/04/29 09:31:58;;;;;;;16.15;8.25;;;14.00;65.30;;;;;;5114371;28;20031;-67
2022/04/29 09:34:42;;;;;;;17.45;8.63;;;14.10;64.90;;;;;;5114356;28;20046;-67
2022/04/29 09:37:25;;;;;;;19.60;9.35;;;14.20;64.80;;;;;;5114402;28;20080;-67
2022/04/29 09:39:52;;;;;;;17.00;7.90;;;14.20;64.00;;;;;;5114339;28;20024;-67
2022/04/29 09:42:18;;;;;;;18.52;8.95;;;14.20;64.00;;;;;;5114267;28;20027;-67
2022/04/29 09:44:43;;;;;;;12.77;7.80;;;14.30;64.30;;;;;;5114110;28;20032;-67
2022/04/29 09:47:14;;;;;;;16.60;7.65;;;14.30;64.40;;;;;;5114134;28;20020;-68
2022/04/29 09:49:41;;;;;;;15.52;7.47;;;14.30;64.00;;;;;;5114150;28;20027;-67
2022/04/29 09:52:07;;;;;;;17.35;7.70;;;14.40;64.10;;;;;;5114058;28;20046;-68
2022/04/29 09:54:38;;;;;;;18.35;8.13;;;14.40;64.30;;;;;;5113981;28;20024;-67
2022/04/29 09:57:10;;;;;;;16.05;7.28;;;14.50;63.90;;;;;;5113108;28;20031;-68
2022/04/29 09:59:38;;;;;;;19.93;8.10;;;14.50;64.10;;;;;;5114097;28;20024;-67
2022/04/29 10:02:05;;;;;;;17.33;7.80;;;14.60;63.70;;;;;;5113860;28;20037;-67
2022/04/29 10:04:34;;;;;;;14.75;7.35;;;14.60;63.30;;;;;;5113790;28;20027;-67
2022/04/29 10:07:03;;;;;;;13.52;7.00;;;14.60;62.60;;;;;;5113755;28;20024;-68
2022/04/29 10:09:35;;;;;;;16.92;7.10;;;14.50;62.70;;;;;;5113763;28;20027;-67
2022/04/29 10:12:07;;;;;;;14.23;6.90;;;14.50;62.30;;;;;;5113778;28;20020;-67
2022/04/29 10:14:36;;;;;;;14.05;7.45;;;14.50;62.70;;;;;;5095797;28;20036;-67
2022/04/29 10:23:12;;;;;;;16.85;7.22;;;14.40;62.20;;;;;;5113838;28;20035;-67
2022/04/29 10:25:44;;;;;;;14.32;7.30;;;14.40;62.70;;;;;;5113485;28;20027;-67
2022/04/29 10:28:14;;;;;;;12.70;6.93;;;14.40;62.70;;;;;;5095431;28;20051;-68
2022/04/29 10:30:40;;;;;;;16.98;7.10;;;14.40;62.70;;;;;;5113547;28;20035;-67
2022/04/29 10:33:22;;;;;;;16.73;7.20;;;14.40;62.70;;;;;;5113463;28;20031;-67
2022/04/29 10:35:49;;;;;;;16.23;7.43;;;14.40;62.50;;;;;;5113457;28;20096;-68
2022/04/29 10:38:27;;;;;;;14.25;6.90;;;14.40;62.50;;;;;;5113365;28;20020;-67
2022/04/29 10:41:15;;;;;;;14.43;7.85;;;14.40;62.40;;;;;;5113316;28;20074;-67
2022/04/29 10:43:52;;;;;;;13.32;7.47;;;14.40;62.10;;;;;;5113242;28;20051;-68
2022/04/29 10:46:22;;;;;;;14.93;7.40;;;14.40;62.10;;;;;;5095381;28;20047;-68
2022/04/29 10:48:54;;;;;;;23.10;7.97;;;14.40;62.60;;;;;;5113111;28;20050;-67
2022/04/29 10:51:24;;;;;;;15.23;7.25;;;14.40;62.20;;;;;;5113292;28;20040;-68
2022/04/29 10:53:52;;;;;;;16.75;7.28;;;14.50;62.30;;;;;;5113551;28;20017;-67
2022/04/29 10:56:26;;;;;;;14.35;7.25;;;14.50;62.30;;;;;;5113214;28;20054;-68
2022/04/29 10:58:53;;;;;;;12.75;6.65;;;14.50;62.30;;;;;;5113206;28;20028;-67
2022/04/29 11:01:27;;;;;;;14.82;6.57;;;14.50;62.10;;;;;;5113196;28;20031;-67
2022/04/29 11:03:53;;;;;;;16.25;7.30;;;14.50;63.00;;;;;;5113056;28;20032;-67
2022/04/29 11:06:19;;;;;;;12.68;6.32;;;14.50;62.00;;;;;;5113137;28;20032;-67
2022/04/29 11:08:46;;;;;;;17.13;7.47;;;14.50;61.50;;;;;;5114937;28;20012;-67
2022/04/29 11:11:12;;;;;;;10.13;6.30;;;14.40;61.20;;;;;;5117125;28;20028;-67
2022/04/29 11:13:43;;;;;;;15.85;6.63;;;14.40;61.20;;;;;;5117107;28;20040;-67
2022/04/29 11:16:14;;;;;;;10.85;6.57;;;14.30;60.90;;;;;;5099149;28;20028;-67
2022/04/29 11:18:41;;;;;;;13.60;6.50;;;14.30;60.60;;;;;;5099075;28;20020;-68
2022/04/29 11:26:49;;;;;;;17.58;7.60;;;14.40;61.40;;;;;;5117135;28;20069;-68
2022/04/29 11:29:17;;;;;;;15.13;6.60;;;14.40;61.30;;;;;;5116506;28;20054;-68
2022/04/29 11:31:43;;;;;;;13.40;6.15;;;14.50;62.00;;;;;;5116746;28;20047;-67
2022/04/29 11:34:14;;;;;;;14.73;6.72;;;14.50;61.50;;;;;;5116728;28;20032;-68
2022/04/29 11:36:40;;;;;;;11.45;6.50;;;14.60;61.00;;;;;;5116697;28;20103;-67
2022/04/29 11:39:19;;;;;;;15.85;7.05;;;14.60;60.70;;;;;;5116584;28;20035;-68
2022/04/29 11:41:52;;;;;;;15.23;6.80;;;14.60;61.20;;;;;;5116581;28;20032;-67
2022/04/29 11:44:35;;;;;;;14.50;7.03;;;14.60;60.50;;;;;;5116450;28;20028;-67
2022/04/29 11:47:01;;;;;;;;;;;14.70;60.90;;;;;;5116927;28;20023;-67
2022/04/29 11:49:29;;;;;;;16.65;6.78;;;14.70;60.80;;;;;;5116569;28;20002;-67
2022/04/29 11:51:54;;;;;;;14.38;6.95;;;14.60;60.70;;;;;;5116327;28;20040;-67
2022/04/29 11:54:20;;;;;;;13.02;6.85;;;14.70;60.90;;;;;;5116364;28;20035;-67
2022/04/29 11:56:46;;;;;;;18.30;8.63;;;14.70;61.40;;;;;;5098299;28;20024;-67
2022/04/29 11:59:12;;;;;;;12.27;7.47;;;14.70;61.50;;;;;;5116228;28;20035;-67
2022/04/29 12:01:39;;;;;;;13.60;7.18;;;14.70;61.20;;;;;;5116301;28;20076;-67
2022/04/29 12:04:05;;;;;;;16.75;8.38;;;14.70;60.90;;;;;;5115942;28;20028;-67
2022/04/29 12:06:31;;;;;;;15.70;8.13;;;14.80;61.30;;;;;;5098211;28;20087;-67
2022/04/29 12:08:57;;;;;;;19.10;8.63;;;14.70;61.00;;;;;;5116007;28;20031;-67
2022/04/29 12:11:28;;;;;;;16.45;8.32;;;14.70;61.50;;;;;;5116014;28;20054;-67
2022/04/29 12:13:54;;;;;;;15.75;7.75;;;14.70;61.70;;;;;;5116001;28;20030;-67
2022/04/29 12:16:20;;;;;;;13.70;7.47;;;14.70;61.80;;;;;;5098279;28;20024;-67
2022/04/29 12:18:48;;;;;;;16.60;8.60;;;14.80;61.80;;;;;;5115990;28;20078;-67
2022/04/29 12:21:21;;;;;;;15.00;7.70;;;14.80;61.80;;;;;;5114737;28;20024;-67
2022/04/29 12:23:47;;;;;;;16.48;7.70;;;14.80;61.70;;;;;;5115694;28;20035;-67
2022/04/29 12:26:13;;;;;;;14.60;7.72;;;14.90;61.80;;;;;;5115693;28;20028;-67
2022/04/29 12:28:38;;;;;;;16.15;7.82;;;14.90;61.90;;;;;;5097568;28;20051;-67
2022/04/29 12:36:54;;;;;;;16.63;8.00;;;15.00;61.50;;;;;;5115800;28;20031;-67
2022/04/29 12:39:24;;;;;;;14.65;7.40;;;15.00;61.20;;;;;;5115402;28;20036;-68
2022/04/29 12:42:01;;;;;;;12.27;7.35;;;15.00;61.30;;;;;;5115484;28;20016;-68
2022/04/29 12:47:24;;;;;;;13.10;7.22;;;15.10;61.40;;;;;;5115533;28;20043;-67
2022/04/29 12:49:51;;;;;;;15.88;6.93;;;15.20;61.10;;;;;;5115287;28;20024;-67
2022/04/29 12:52:17;;;;;;;13.77;6.65;;;15.30;61.30;;;;;;5115115;28;20020;-67
2022/04/29 12:54:43;;;;;;;16.50;7.20;;;15.40;60.60;;;;;;5114853;28;20039;-67
2022/04/29 12:57:09;;;;;;;14.80;6.95;;;15.50;60.70;;;;;;5114796;28;20032;-67
2022/04/29 12:59:37;;;;;;;17.85;7.43;;;15.60;60.60;;;;;;5114782;28;20023;-67
2022/04/29 13:02:07;;;;;;;13.20;6.97;;;15.70;59.80;;;;;;5114685;28;20095;-68
2022/04/29 13:04:33;;;;;;;14.85;6.63;;;15.90;59.40;;;;;;5114601;28;20100;-67
2022/04/29 13:06:59;;;;;;;16.05;7.28;;;16.00;59.00;;;;;;5114606;28;20024;-68
2022/04/29 13:09:25;;;;;;;14.00;6.97;;;16.10;58.30;;;;;;5114606;28;20024;-67
2022/04/29 13:11:52;;;;;;;11.15;6.55;;;16.20;58.30;;;;;;5114567;28;20024;-68
2022/04/29 13:14:18;;;;;;;12.48;6.65;;;16.30;57.20;;;;;;5114579;28;20030;-68
2022/04/29 13:16:44;;;;;;;15.73;6.90;;;16.40;56.60;;;;;;5114471;28;20043;-68